createdAt,value
2022-12-03T00:00:54.483Z,102241.47
2022-12-03T00:03:30.612Z,102232.38
2022-12-03T00:06:04.348Z,102229.75
2022-12-03T00:08:38.169Z,102228.88
2022-12-03T00:11:13.150Z,102225.97
2022-12-03T00:13:47.010Z,102233.94
2022-12-03T00:16:20.613Z,102225.88
2022-12-03T00:18:54.362Z,102221.97
2022-12-03T00:21:27.982Z,102226.72
2022-12-03T00:24:01.806Z,102219.13
2022-12-03T00:26:36.766Z,102222.63
2022-12-03T00:29:11.289Z,102216.31
2022-12-03T00:31:45.516Z,102225.69
2022-12-03T00:34:19.320Z,102222.81
2022-12-03T00:36:52.830Z,102228.75
2022-12-03T00:39:26.600Z,102220.69
2022-12-03T00:42:01.432Z,102224.25
2022-12-03T00:44:35.221Z,102222.88
2022-12-03T00:47:09.645Z,102219.63
2022-12-03T00:49:43.719Z,102219.44
2022-12-03T00:52:17.243Z,102217.03
2022-12-03T00:54:51.390Z,102217.97
2022-12-03T00:57:26.673Z,102212.84
2022-12-03T01:00:00.465Z,102210.25
2022-12-03T01:02:33.952Z,102220.09
2022-12-03T01:05:08.354Z,102218.22
2022-12-03T01:07:42.203Z,102221.53
2022-12-03T01:10:16.245Z,102231.97
2022-12-03T01:12:51.200Z,102223.88
2022-12-03T01:15:25.009Z,102226.66
2022-12-03T01:17:58.616Z,102227.81
2022-12-03T01:20:32.367Z,102222.72
2022-12-03T01:23:06.008Z,102233.16
2022-12-03T01:25:39.783Z,102232.09
2022-12-03T01:28:15.782Z,102237.41
2022-12-03T01:31:06.341Z,102235.56
2022-12-03T01:33:39.964Z,102234.84
2022-12-03T01:36:13.751Z,102237.06
2022-12-03T01:38:48.660Z,102240.44
2022-12-03T01:41:24.615Z,102237.50
2022-12-03T01:44:00.178Z,102242.28
2022-12-03T01:46:40.165Z,102227.41
2022-12-03T01:49:16.783Z,102235.84
2022-12-03T01:51:53.242Z,102232.94
2022-12-03T01:54:29.726Z,102237.16
2022-12-03T01:57:03.705Z,102235.50
2022-12-03T01:59:39.979Z,102230.75
2022-12-03T02:02:15.513Z,102232.94
2022-12-03T02:04:49.764Z,102234.06
2022-12-03T02:07:26.814Z,102226.75
2022-12-03T02:10:03.349Z,102229.50
2022-12-03T02:12:41.792Z,102230.22
2022-12-03T02:15:17.053Z,102236.28
2022-12-03T02:17:51.408Z,102233.00
2022-12-03T02:20:25.109Z,102235.75
2022-12-03T02:23:08.351Z,102232.06
2022-12-03T02:25:43.374Z,102230.63
2022-12-03T02:28:17.146Z,102239.41
2022-12-03T02:30:50.738Z,102235.59
2022-12-03T02:33:24.539Z,102230.06
2022-12-03T02:36:03.332Z,102236.31
2022-12-03T02:38:37.798Z,102239.81
2022-12-03T02:41:36.180Z,102235.59
2022-12-03T02:44:09.500Z,102235.03
2022-12-03T02:46:43.243Z,102235.22
2022-12-03T02:49:17.086Z,102239.84
2022-12-03T02:51:50.803Z,102241.66
2022-12-03T02:54:25.141Z,102240.41
2022-12-03T02:57:00.480Z,102232.69
2022-12-03T02:59:34.980Z,102241.69
2022-12-03T03:02:11.480Z,102237.31
2022-12-03T03:04:45.801Z,102230.84
2022-12-03T03:07:19.518Z,102238.75
2022-12-03T03:09:53.632Z,102238.97
2022-12-03T03:12:28.559Z,102225.72
2022-12-03T03:15:02.700Z,102239.31
2022-12-03T03:17:36.842Z,102225.19
2022-12-03T03:20:12.140Z,102226.84
2022-12-03T03:22:45.858Z,102226.84
2022-12-03T03:25:22.379Z,102232.91
2022-12-03T03:27:57.306Z,102231.06
2022-12-03T03:30:31.316Z,102221.53
2022-12-03T03:33:04.911Z,102224.66
2022-12-03T03:35:39.289Z,102220.63
2022-12-03T03:38:13.531Z,102216.41
2022-12-03T03:40:48.060Z,102217.31
2022-12-03T03:43:23.903Z,102217.88
2022-12-03T03:45:58.029Z,102211.25
2022-12-03T03:48:34.097Z,102214.56
2022-12-03T03:51:09.723Z,102211.81
2022-12-03T03:53:47.713Z,102208.53
2022-12-03T03:56:22.952Z,102203.75
2022-12-03T03:58:58.021Z,102205.94
2022-12-03T04:01:32.391Z,102204.84
2022-12-03T04:04:08.094Z,102194.22
2022-12-03T04:06:42.031Z,102189.81
2022-12-03T04:09:15.864Z,102195.69
2022-12-03T04:12:06.997Z,102195.69
2022-12-03T04:14:42.060Z,102199.91
2022-12-03T04:17:15.892Z,102198.09
2022-12-03T04:19:49.483Z,102199.56
2022-12-03T04:22:40.397Z,102197.53
2022-12-03T04:25:31.420Z,102199.34
2022-12-03T04:28:22.862Z,102194.22
2022-12-03T04:30:58.068Z,102201.00
2022-12-03T04:33:49.294Z,102202.66
2022-12-03T04:36:22.767Z,102200.47
2022-12-03T04:38:56.478Z,102194.63
2022-12-03T04:41:30.102Z,102200.31
2022-12-03T04:44:21.191Z,102194.63
2022-12-03T04:46:56.112Z,102203.41
2022-12-03T04:49:30.156Z,102201.41
2022-12-03T04:52:04.329Z,102198.50
2022-12-03T04:54:38.363Z,102201.59
2022-12-03T04:57:12.525Z,102194.63
2022-12-03T04:59:46.309Z,102192.63
2022-12-03T05:02:21.220Z,102209.28
2022-12-03T05:04:55.198Z,102203.59
2022-12-03T05:07:29.044Z,102204.69
2022-12-03T05:10:02.886Z,102195.72
2022-12-03T05:12:36.757Z,102203.97
2022-12-03T05:15:11.176Z,102196.59
2022-12-03T05:17:46.209Z,102197.38
2022-12-03T05:20:37.689Z,102206.00
2022-12-03T05:23:12.157Z,102187.84
2022-12-03T05:25:45.958Z,102192.78
2022-12-03T05:28:22.060Z,102184.34
2022-12-03T05:30:56.051Z,102195.00
2022-12-03T05:33:30.990Z,102189.53
2022-12-03T05:36:04.970Z,102181.25
2022-12-03T05:38:38.533Z,102187.13
2022-12-03T05:41:29.781Z,102189.13
2022-12-03T05:44:03.383Z,102190.78
2022-12-03T05:46:37.154Z,102188.22
2022-12-03T05:49:12.044Z,102187.28
2022-12-03T05:51:45.892Z,102188.03
2022-12-03T05:54:19.511Z,102184.00
2022-12-03T05:56:53.253Z,102191.19
2022-12-03T05:59:26.840Z,102185.88
2022-12-03T06:02:00.811Z,102182.03
2022-12-03T06:04:36.339Z,102193.94
2022-12-03T06:07:13.959Z,102192.66
2022-12-03T06:09:47.997Z,102187.13
2022-12-03T06:12:21.822Z,102185.50
2022-12-03T06:14:56.003Z,102181.81
2022-12-03T06:17:30.000Z,102183.66
2022-12-03T06:20:05.924Z,102183.66
2022-12-03T06:22:39.827Z,102183.13
2022-12-03T06:25:13.840Z,102172.31
2022-12-03T06:27:47.516Z,102166.47
2022-12-03T06:30:21.122Z,102165.38
2022-12-03T06:32:54.955Z,102169.38
2022-12-03T06:35:30.062Z,102170.09
2022-12-03T06:38:03.930Z,102167.19
2022-12-03T06:40:38.252Z,102171.94
2022-12-03T06:43:12.067Z,102167.34
2022-12-03T06:45:47.837Z,102169.56
2022-12-03T06:48:21.952Z,102181.09
2022-12-03T06:50:56.820Z,102171.94
2022-12-03T06:53:30.570Z,102174.50
2022-12-03T06:56:04.119Z,102179.28
2022-12-03T06:58:37.872Z,102178.00
2022-12-03T07:01:11.604Z,102184.22
2022-12-03T07:03:45.328Z,102181.47
2022-12-03T07:06:20.258Z,102175.59
2022-12-03T07:08:54.026Z,102178.34
2022-12-03T07:11:39.785Z,102182.19
2022-12-03T07:14:13.645Z,102185.50
2022-12-03T07:16:47.696Z,102181.28
2022-12-03T07:19:21.455Z,102176.69
2022-12-03T07:21:56.353Z,102182.75
2022-12-03T07:24:30.191Z,102177.97
2022-12-03T07:27:03.847Z,102181.28
2022-12-03T07:29:37.625Z,102182.59
2022-12-03T07:32:11.273Z,102188.97
2022-12-03T07:34:45.242Z,102180.00
2022-12-03T07:37:23.364Z,102179.44
2022-12-03T07:39:57.279Z,102177.78
2022-12-03T07:42:30.836Z,102181.47
2022-12-03T07:45:05.114Z,102174.13
2022-12-03T07:47:39.063Z,102177.06
2022-12-03T07:50:13.486Z,102178.38
2022-12-03T07:52:48.314Z,102176.91
2022-12-03T07:55:22.388Z,102175.25
2022-12-03T07:57:55.918Z,102179.81
2022-12-03T08:00:29.657Z,102178.19
2022-12-03T08:03:03.231Z,102172.13
2022-12-03T08:05:37.077Z,102175.44
2022-12-03T08:08:12.086Z,102168.47
2022-12-03T08:10:45.927Z,102173.75
2022-12-03T08:13:20.064Z,102162.78
2022-12-03T08:15:53.847Z,102153.63
2022-12-03T08:18:29.271Z,102160.38
2022-12-03T08:21:03.048Z,102159.47
2022-12-03T08:23:38.019Z,102165.72
2022-12-03T08:26:20.606Z,102161.28
2022-12-03T08:28:54.554Z,102166.59
2022-12-03T08:31:33.238Z,102153.13
2022-12-03T08:34:19.672Z,102151.31
2022-12-03T08:36:59.438Z,102148.13
2022-12-03T08:39:37.754Z,102158.59
2022-12-03T08:42:34.725Z,102163.91
2022-12-03T08:45:33.157Z,102164.25
2022-12-03T08:48:13.609Z,102162.59
2022-12-03T08:50:47.550Z,102164.41
2022-12-03T08:53:29.629Z,102157.63
2022-12-03T08:56:07.523Z,102148.84
2022-12-03T08:58:43.949Z,102146.22
2022-12-03T09:01:39.071Z,102142.78
2022-12-03T09:04:22.328Z,102142.03
2022-12-03T09:06:56.930Z,102137.59
2022-12-03T09:09:30.662Z,102140.28
2022-12-03T09:12:06.253Z,102137.84
2022-12-03T09:14:40.258Z,102142.56
2022-12-03T09:17:13.755Z,102131.38
2022-12-03T09:19:47.626Z,102131.38
2022-12-03T09:22:21.134Z,102133.88
2022-12-03T09:24:55.215Z,102125.59
2022-12-03T09:27:30.266Z,102129.41
2022-12-03T09:30:04.645Z,102121.44
2022-12-03T09:32:38.283Z,102128.25
2022-12-03T09:35:12.696Z,102122.53
2022-12-03T09:37:46.271Z,102121.09
2022-12-03T09:40:20.916Z,102117.28
2022-12-03T09:42:58.523Z,102120.34
2022-12-03T09:45:32.611Z,102116.53
2022-12-03T09:48:06.447Z,102119.09
2022-12-03T09:50:43.057Z,102121.97
2022-12-03T09:53:19.878Z,102123.44
2022-12-03T09:55:53.757Z,102115.78
2022-12-03T09:58:34.489Z,102119.09
2022-12-03T10:01:14.765Z,102121.09
2022-12-03T10:03:50.992Z,102113.56
2022-12-03T10:06:25.165Z,102106.75
2022-12-03T10:09:00.004Z,102113.56
2022-12-03T10:11:36.788Z,102113.38
2022-12-03T10:14:13.419Z,102106.47
2022-12-03T10:16:47.728Z,102099.22
2022-12-03T10:19:24.329Z,102096.16
2022-12-03T10:21:58.650Z,102094.69
2022-12-03T10:24:33.947Z,102095.38
2022-12-03T10:27:22.196Z,102080.38
2022-12-03T10:29:59.113Z,102086.34
2022-12-03T10:32:41.263Z,102087.25
2022-12-03T10:35:16.912Z,102090.91
2022-12-03T10:38:00.032Z,102079.56
2022-12-03T10:40:35.445Z,102083.03
2022-12-03T10:43:21.331Z,102085.88
2022-12-03T10:46:13.273Z,102079.22
2022-12-03T10:49:07.385Z,102084.13
2022-12-03T10:51:41.259Z,102076.50
2022-12-03T10:54:21.688Z,102075.97
2022-12-03T10:56:55.298Z,102079.81
2022-12-03T10:59:33.855Z,102074.41
2022-12-03T11:02:19.663Z,102069.91
2022-12-03T11:04:54.121Z,102066.63
2022-12-03T11:07:28.237Z,102067.94
2022-12-03T11:10:02.770Z,102059.66
2022-12-03T11:12:37.067Z,102071.53
2022-12-03T11:15:16.689Z,102054.69
2022-12-03T11:17:54.019Z,102056.56
2022-12-03T11:21:10.943Z,102055.00
2022-12-03T11:24:19.822Z,102053.31
2022-12-03T11:27:26.453Z,102045.97
2022-12-03T11:30:01.499Z,102039.25
2022-12-03T11:33:23.247Z,102042.00
2022-12-03T11:36:15.966Z,102034.34
2022-12-03T11:38:55.137Z,102033.09
2022-12-03T11:41:33.889Z,102033.78
2022-12-03T11:44:30.176Z,102027.63
2022-12-03T11:47:15.077Z,102029.63
2022-12-03T11:49:50.291Z,102011.88
2022-12-03T11:52:31.732Z,102020.31
2022-12-03T11:55:17.366Z,102019.41
2022-12-03T11:57:58.914Z,102011.28
2022-12-03T12:00:33.384Z,102000.81
2022-12-03T12:03:22.561Z,102001.59
2022-12-03T12:06:08.916Z,102001.44
2022-12-03T12:08:56.247Z,101999.28
2022-12-03T12:11:32.653Z,101998.44
2022-12-03T12:14:08.066Z,101995.53
2022-12-03T12:16:50.532Z,101997.69
2022-12-03T12:19:34.008Z,101988.25
2022-12-03T12:22:20.859Z,101980.59
2022-12-03T12:24:55.438Z,101978.47
2022-12-03T12:27:35.124Z,101965.94
2022-12-03T12:30:14.016Z,101960.91
2022-12-03T12:32:50.125Z,101960.59
2022-12-03T12:35:25.669Z,101956.19
2022-12-03T12:38:12.185Z,101959.13
2022-12-03T12:40:49.064Z,101955.91
2022-12-03T12:43:25.247Z,101950.00
2022-12-03T12:46:18.642Z,101947.78
2022-12-03T12:48:59.734Z,101954.25
2022-12-03T12:51:33.870Z,101951.84
2022-12-03T12:54:13.074Z,101942.47
2022-12-03T12:56:49.976Z,101936.41
2022-12-03T12:59:24.424Z,101941.88
2022-12-03T13:01:59.313Z,101934.34
2022-12-03T13:04:39.575Z,101933.84
2022-12-03T13:07:13.129Z,101925.47
2022-12-03T13:09:54.666Z,101929.78
2022-12-03T13:12:28.921Z,101931.25
2022-12-03T13:15:02.890Z,101924.56
2022-12-03T13:17:36.532Z,101926.72
2022-12-03T13:20:18.850Z,101927.53
2022-12-03T13:22:52.465Z,101915.06
2022-12-03T13:28:31.581Z,101917.34
2022-12-03T13:31:22.959Z,101920.94
2022-12-03T13:33:58.107Z,101918.59
2022-12-03T13:36:41.303Z,101922.47
2022-12-03T13:39:19.902Z,101925.63
2022-12-03T13:42:12.609Z,101924.63
2022-12-03T13:44:48.929Z,101924.13
2022-12-03T13:47:24.828Z,101928.47
2022-12-03T13:50:03.655Z,101928.69
2022-12-03T13:52:37.845Z,101932.59
2022-12-03T13:55:12.745Z,101927.28
2022-12-03T13:57:47.819Z,101924.13
2022-12-03T14:00:21.387Z,101926.13
2022-12-03T14:02:55.140Z,101917.50
2022-12-03T14:05:28.721Z,101921.91
2022-12-03T14:08:02.806Z,101926.53
2022-12-03T14:10:36.425Z,101909.22
2022-12-03T14:13:11.552Z,101922.91
2022-12-03T14:15:45.139Z,101920.81
2022-12-03T14:18:19.041Z,101914.19
2022-12-03T14:20:52.632Z,101907.63
2022-12-03T14:23:26.373Z,101910.78
2022-12-03T14:25:59.964Z,101912.59
2022-12-03T14:28:35.123Z,101907.22
2022-12-03T14:31:08.805Z,101904.72
2022-12-03T14:33:42.662Z,101905.72
2022-12-03T14:36:16.252Z,101904.97
2022-12-03T14:38:50.133Z,101902.13
2022-12-03T14:41:41.044Z,101905.94
2022-12-03T14:44:16.402Z,101900.63
2022-12-03T14:46:54.034Z,101900.41
2022-12-03T14:49:30.856Z,101900.97
2022-12-03T14:52:08.512Z,101904.19
2022-12-03T14:54:46.122Z,101897.22
2022-12-03T14:57:19.734Z,101896.31
2022-12-03T14:59:55.054Z,101898.97
2022-12-03T15:02:30.364Z,101889.75
2022-12-03T15:05:04.664Z,101887.38
2022-12-03T15:07:39.418Z,101884.63
2022-12-03T15:10:13.365Z,101890.72
2022-12-03T15:12:47.109Z,101895.69
2022-12-03T15:15:23.050Z,101894.19
2022-12-03T15:17:56.822Z,101896.16
2022-12-03T15:20:31.267Z,101894.38
2022-12-03T15:23:04.905Z,101893.28
2022-12-03T15:25:38.798Z,101890.22
2022-12-03T15:28:12.740Z,101892.78
2022-12-03T15:30:47.870Z,101885.41
2022-12-03T15:33:21.419Z,101887.47
2022-12-03T15:35:55.223Z,101882.50
2022-12-03T15:38:28.761Z,101888.31
2022-12-03T15:41:20.730Z,101883.41
2022-12-03T15:43:54.224Z,101882.00
2022-12-03T15:46:31.209Z,101885.31
2022-12-03T15:49:04.918Z,101878.75
2022-12-03T15:51:38.643Z,101886.34
2022-12-03T15:54:12.517Z,101878.34
2022-12-03T15:56:46.284Z,101880.78
2022-12-03T15:59:19.779Z,101876.31
2022-12-03T16:01:58.137Z,101874.91
2022-12-03T16:04:31.672Z,101868.50
2022-12-03T16:07:05.791Z,101881.59
2022-12-03T16:09:40.060Z,101869.09
2022-12-03T16:12:13.826Z,101870.19
2022-12-03T16:14:47.465Z,101873.56
2022-12-03T16:17:22.537Z,101872.81
2022-12-03T16:19:56.254Z,101873.91
2022-12-03T16:22:30.293Z,101875.22
2022-12-03T16:25:05.138Z,101875.56
2022-12-03T16:27:38.948Z,101875.38
2022-12-03T16:30:13.573Z,101870.19
2022-12-03T16:32:48.855Z,101870.00
2022-12-03T16:35:22.402Z,101872.41
2022-12-03T16:37:56.095Z,101871.00
2022-12-03T16:40:29.709Z,101874.81
2022-12-03T16:43:04.805Z,101876.38
2022-12-03T16:45:52.361Z,101867.38
2022-12-03T16:48:27.533Z,101872.81
2022-12-03T16:51:01.068Z,101880.22
2022-12-03T16:53:34.856Z,101874.31
2022-12-03T16:56:08.932Z,101873.56
2022-12-03T16:58:42.717Z,101873.06
2022-12-03T17:01:16.558Z,101873.72
2022-12-03T17:03:51.731Z,101868.25
2022-12-03T17:06:25.314Z,101868.44
2022-12-03T17:08:58.990Z,101871.81
2022-12-03T17:11:32.596Z,101866.13
2022-12-03T17:14:06.456Z,101873.47
2022-12-03T17:16:40.066Z,101867.00
2022-12-03T17:19:15.283Z,101862.13
2022-12-03T17:21:48.765Z,101862.22
2022-12-03T17:24:22.504Z,101867.50
2022-12-03T17:26:55.963Z,101867.22
2022-12-03T17:29:29.638Z,101866.13
2022-12-03T17:32:04.102Z,101854.38
2022-12-03T17:34:39.392Z,101862.06
2022-12-03T17:37:12.874Z,101856.09
2022-12-03T17:39:46.587Z,101859.31
2022-12-03T17:42:20.111Z,101853.13
2022-12-03T17:44:53.850Z,101855.28
2022-12-03T17:47:27.425Z,101847.72
2022-12-03T17:50:02.578Z,101845.16
2022-12-03T17:52:36.242Z,101844.47
2022-12-03T17:55:14.227Z,101851.28
2022-12-03T17:57:49.888Z,101850.91
2022-12-03T18:00:23.916Z,101845.72
2022-12-03T18:02:57.412Z,101847.66
2022-12-03T18:05:32.794Z,101858.09
2022-12-03T18:08:07.303Z,101847.88
2022-12-03T18:10:41.036Z,101844.06
2022-12-03T18:13:14.567Z,101846.28
2022-12-03T18:15:48.376Z,101847.03
2022-12-03T18:18:22.067Z,101851.81
2022-12-03T18:21:01.934Z,101849.63
2022-12-03T18:23:36.543Z,101848.69
2022-12-03T18:26:10.338Z,101846.50
2022-12-03T18:28:43.921Z,101847.59
2022-12-03T18:31:19.910Z,101857.34
2022-12-03T18:33:53.562Z,101857.00
2022-12-03T18:36:34.604Z,101860.16
2022-12-03T18:39:09.550Z,101854.16
2022-12-03T18:41:43.437Z,101856.66
2022-12-03T18:44:17.013Z,101858.31
2022-12-03T18:46:53.846Z,101863.53
2022-12-03T18:49:28.019Z,101859.88
2022-12-03T18:52:03.021Z,101861.88
2022-12-03T18:54:36.603Z,101857.50
2022-12-03T18:57:10.563Z,101858.41
2022-12-03T18:59:44.402Z,101872.16
2022-12-03T19:05:14.678Z,101859.31
2022-12-03T19:07:51.235Z,101866.44
2022-12-03T19:10:25.358Z,101861.88
2022-12-03T19:12:59.156Z,101865.03
2022-12-03T19:15:32.701Z,101859.91
2022-12-03T19:18:07.495Z,101856.06
2022-12-03T19:20:41.784Z,101856.66
2022-12-03T19:23:16.886Z,101854.81
2022-12-03T19:25:57.600Z,101861.44
2022-12-03T19:28:32.134Z,101857.81
2022-12-03T19:31:07.809Z,101853.41
2022-12-03T19:33:42.420Z,101847.53
2022-12-03T19:36:24.045Z,101854.16
2022-12-03T19:39:01.483Z,101856.31
2022-12-03T19:41:35.223Z,101860.53
2022-12-03T19:44:11.039Z,101864.41
2022-12-03T19:46:45.280Z,101862.63
2022-12-03T19:49:21.020Z,101867.63
2022-12-03T19:51:54.701Z,101873.13
2022-12-03T19:54:29.873Z,101870.41
2022-12-03T19:57:03.372Z,101869.09
2022-12-03T19:59:37.195Z,101867.09
2022-12-03T20:02:11.384Z,101870.97
2022-12-03T20:04:45.248Z,101866.56
2022-12-03T20:07:18.728Z,101869.31
2022-12-03T20:09:54.233Z,101870.78
2022-12-03T20:12:27.822Z,101878.66
2022-12-03T20:15:01.566Z,101868.75
2022-12-03T20:17:35.243Z,101867.88
2022-12-03T20:20:10.185Z,101864.63
2022-12-03T20:22:43.803Z,101869.94
2022-12-03T20:25:19.124Z,101869.19
2022-12-03T20:27:52.929Z,101878.53
2022-12-03T20:30:26.775Z,101873.78
2022-12-03T20:33:00.692Z,101876.22
2022-12-03T20:35:34.787Z,101883.34
2022-12-03T20:38:08.477Z,101867.97
2022-12-03T20:40:43.678Z,101878.38
2022-12-03T20:43:17.613Z,101871.63
2022-12-03T20:45:51.303Z,101878.75
2022-12-03T20:48:24.866Z,101871.63
2022-12-03T20:50:58.555Z,101874.75
2022-12-03T20:53:32.177Z,101874.56
2022-12-03T20:56:08.916Z,101872.75
2022-12-03T20:58:42.545Z,101868.69
2022-12-03T21:01:19.461Z,101869.09
2022-12-03T21:03:54.689Z,101868.13
2022-12-03T21:06:29.809Z,101866.53
2022-12-03T21:09:05.489Z,101882.44
2022-12-03T21:11:42.616Z,101876.41
2022-12-03T21:14:16.361Z,101873.47
2022-12-03T21:17:07.713Z,101873.69
2022-12-03T21:19:42.165Z,101877.16
2022-12-03T21:22:16.040Z,101878.25
2022-12-03T21:24:49.527Z,101871.88
2022-12-03T21:27:24.706Z,101877.53
2022-12-03T21:29:58.312Z,101872.38
2022-12-03T21:32:32.017Z,101874.06
2022-12-03T21:35:06.158Z,101869.13
2022-12-03T21:37:39.958Z,101874.41
2022-12-03T21:40:13.885Z,101879.16
2022-12-03T21:42:49.124Z,101876.09
2022-12-03T21:45:24.943Z,101872.97
2022-12-03T21:47:58.845Z,101876.44
2022-12-03T21:50:32.432Z,101873.72
2022-12-03T21:53:06.173Z,101870.59
2022-12-03T21:55:40.399Z,101877.38
2022-12-03T21:58:15.631Z,101871.88
2022-12-03T22:00:49.241Z,101872.78
2022-12-03T22:03:23.082Z,101879.91
2022-12-03T22:05:56.715Z,101874.22
2022-12-03T22:08:30.419Z,101871.28
2022-12-03T22:11:08.976Z,101874.97
2022-12-03T22:13:44.437Z,101871.69
2022-12-03T22:16:21.504Z,101869.72
2022-12-03T22:18:55.343Z,101872.63
2022-12-03T22:21:29.247Z,101867.50
2022-12-03T22:24:03.140Z,101871.56
2022-12-03T22:26:36.931Z,101861.50
2022-12-03T22:29:13.179Z,101862.06
2022-12-03T22:31:46.956Z,101870.28
2022-12-03T22:34:20.946Z,101869.00
2022-12-03T22:36:54.604Z,101870.09
2022-12-03T22:39:28.514Z,101864.81
2022-12-03T22:42:02.128Z,101863.34
2022-12-03T22:44:37.456Z,101864.06
2022-12-03T22:47:11.083Z,101861.88
2022-12-03T22:49:45.017Z,101861.34
2022-12-03T22:52:18.694Z,101862.59
2022-12-03T22:54:52.462Z,101864.63
2022-12-03T22:57:26.016Z,101865.91
2022-12-03T23:00:01.142Z,101871.19
2022-12-03T23:02:35.024Z,101856.03
2022-12-03T23:05:09.055Z,101856.38
2022-12-03T23:07:42.844Z,101858.75
2022-12-03T23:10:17.006Z,101850.53
2022-12-03T23:12:50.689Z,101852.56
2022-12-03T23:15:25.908Z,101859.50
2022-12-03T23:18:00.155Z,101848.50
2022-12-03T23:20:34.186Z,101853.25
2022-12-03T23:23:07.842Z,101854.38
2022-12-03T23:25:41.714Z,101855.81
2022-12-03T23:28:15.261Z,101851.44
2022-12-03T23:30:50.346Z,101854.34
2022-12-03T23:33:24.465Z,101853.66
2022-12-03T23:35:58.274Z,101854.34
2022-12-03T23:38:31.798Z,101841.56
2022-12-03T23:41:06.015Z,101842.47
2022-12-03T23:43:40.316Z,101840.63
2022-12-03T23:46:17.725Z,101842.09
2022-12-03T23:48:52.003Z,101842.63
2022-12-03T23:51:27.266Z,101840.44
2022-12-03T23:54:00.935Z,101843.53
2022-12-03T23:56:34.768Z,101848.09
2022-12-03T23:59:08.220Z,101845.16
